createdAt,value
2018-05-07T00:00:35.582Z,55.10
2018-05-07T00:05:40.891Z,55.70
2018-05-07T00:10:46.499Z,55.80
2018-05-07T00:15:52.454Z,55.30
2018-05-07T00:21:02.673Z,54.60
2018-05-07T00:26:08.620Z,54.40
2018-05-07T00:31:14.796Z,54.90
2018-05-07T00:36:20.795Z,54.80
2018-05-07T00:41:25.047Z,54.80
2018-05-07T00:46:31.505Z,54.50
2018-05-07T00:51:38.797Z,55.60
2018-05-07T00:56:42.622Z,55.60
2018-05-07T01:01:50.403Z,56.20
2018-05-07T01:06:55.839Z,57.00
2018-05-07T01:12:02.408Z,57.20
2018-05-07T01:17:06.880Z,57.80
2018-05-07T01:22:12.643Z,56.60
2018-05-07T01:27:18.004Z,57.40
2018-05-07T01:32:23.398Z,57.30
2018-05-07T01:37:29.296Z,56.80
2018-05-07T01:42:34.307Z,56.80
2018-05-07T01:47:40.352Z,57.00
2018-05-07T01:52:46.804Z,57.00
2018-05-07T01:57:52.570Z,57.20
2018-05-07T02:02:58.270Z,58.20
2018-05-07T02:08:03.379Z,58.90
2018-05-07T02:13:13.580Z,58.80
2018-05-07T02:18:19.031Z,58.60
2018-05-07T02:23:34.104Z,59.80
2018-05-07T02:28:39.241Z,59.70
2018-05-07T02:33:43.103Z,59.00
2018-05-07T02:38:48.445Z,59.10
2018-05-07T02:43:54.262Z,59.10
2018-05-07T02:49:02.818Z,59.10
2018-05-07T02:54:09.126Z,59.10
2018-05-07T02:59:16.491Z,59.90
2018-05-07T03:04:24.593Z,59.80
2018-05-07T03:09:30.526Z,60.40
2018-05-07T03:14:39.461Z,60.20
2018-05-07T03:19:56.850Z,60.10
2018-05-07T03:25:02.837Z,60.00
2018-05-07T03:30:11.957Z,60.40
2018-05-07T03:35:17.831Z,60.80
2018-05-07T03:40:25.275Z,61.20
2018-05-07T03:45:30.082Z,60.80
2018-05-07T03:50:35.599Z,60.20
2018-05-07T03:55:46.485Z,60.00
2018-05-07T04:00:51.306Z,59.50
2018-05-07T04:05:57.099Z,59.40
2018-05-07T04:11:12.188Z,59.40
2018-05-07T04:32:26.415Z,57.50
2018-05-07T04:37:32.863Z,57.50
2018-05-07T04:42:38.250Z,57.50
2018-05-07T04:47:41.665Z,56.90
2018-05-07T04:52:47.573Z,53.70
2018-05-07T04:57:53.083Z,49.70
2018-05-07T05:03:00.435Z,44.70
2018-05-07T05:08:05.468Z,41.50
2018-05-07T05:13:11.767Z,39.80
2018-05-07T05:18:22.186Z,39.00
2018-05-07T05:23:27.989Z,38.50
2018-05-07T05:28:35.139Z,38.80
2018-05-07T05:33:44.954Z,37.30
2018-05-07T05:38:51.596Z,37.80
2018-05-07T05:43:58.552Z,38.20
2018-05-07T05:49:03.512Z,38.20
2018-05-07T05:54:11.362Z,37.30
2018-05-07T05:59:17.443Z,37.40
2018-05-07T06:04:24.531Z,38.70
2018-05-07T06:09:31.029Z,38.60
2018-05-07T06:14:36.863Z,39.30
2018-05-07T06:19:44.644Z,38.50
2018-05-07T06:24:50.345Z,38.30
2018-05-07T06:29:56.570Z,36.90
2018-05-07T06:35:03.106Z,37.10
2018-05-07T06:40:10.697Z,38.30
2018-05-07T06:45:16.699Z,38.00
2018-05-07T06:50:22.959Z,38.10
2018-05-07T06:55:28.767Z,38.10
2018-05-07T07:00:35.659Z,37.70
2018-05-07T07:05:42.789Z,37.60
2018-05-07T07:10:51.342Z,38.50
2018-05-07T07:15:56.726Z,38.50
2018-05-07T07:21:04.824Z,37.50
2018-05-07T07:26:12.365Z,35.20
2018-05-07T07:31:19.498Z,36.40
2018-05-07T07:36:25.577Z,32.60
2018-05-07T07:41:31.857Z,33.90
2018-05-07T07:46:38.793Z,34.00
2018-05-07T07:51:46.736Z,32.10
2018-05-07T07:56:52.316Z,33.90
2018-05-07T08:01:59.788Z,32.90
2018-05-07T08:07:05.115Z,32.90
2018-05-07T08:12:11.565Z,34.40
2018-05-07T08:17:18.531Z,33.40
2018-05-07T08:22:24.524Z,34.60
2018-05-07T08:27:29.967Z,33.20
2018-05-07T08:32:34.897Z,32.40
2018-05-07T08:37:39.768Z,33.50
2018-05-07T08:42:41.426Z,32.70
2018-05-07T08:47:45.787Z,31.90
2018-05-07T08:52:49.696Z,32.90
2018-05-07T08:57:53.998Z,32.90
2018-05-07T09:02:56.682Z,32.60
2018-05-07T09:08:00.598Z,35.30
2018-05-07T09:13:03.906Z,33.20
2018-05-07T09:18:07.848Z,32.70
2018-05-07T09:23:12.752Z,31.80
2018-05-07T09:28:16.222Z,32.60
2018-05-07T09:33:19.289Z,31.40
2018-05-07T09:38:22.590Z,30.20
2018-05-07T09:43:25.482Z,29.20
2018-05-07T09:48:28.188Z,32.70
2018-05-07T09:53:34.650Z,33.20
2018-05-07T09:58:56.672Z,33.20
2018-05-07T10:04:01.333Z,33.60
2018-05-07T10:09:05.040Z,34.50
2018-05-07T10:14:09.184Z,35.00
2018-05-07T10:19:13.878Z,36.00
2018-05-07T10:24:18.877Z,36.10
2018-05-07T10:29:21.910Z,33.10
2018-05-07T10:34:25.371Z,32.60
2018-05-07T10:39:28.852Z,32.80
2018-05-07T10:44:32.050Z,31.80
2018-05-07T10:49:36.789Z,34.40
2018-05-07T10:54:42.136Z,31.00
2018-05-07T10:59:45.231Z,30.90
2018-05-07T11:04:49.745Z,33.40
2018-05-07T11:09:52.399Z,30.10
2018-05-07T11:14:56.724Z,30.10
2018-05-07T11:19:59.498Z,31.30
2018-05-07T11:25:03.469Z,31.60
2018-05-07T11:30:06.961Z,31.60
2018-05-07T11:35:11.818Z,29.50
2018-05-07T11:40:13.656Z,29.50
2018-05-07T11:45:16.861Z,33.30
2018-05-07T11:50:19.858Z,31.20
2018-05-07T11:55:23.288Z,29.90
2018-05-07T12:00:25.982Z,28.50
2018-05-07T12:05:30.387Z,29.90
2018-05-07T12:10:35.111Z,28.20
2018-05-07T12:15:41.836Z,28.50
2018-05-07T12:20:46.353Z,28.20
2018-05-07T12:25:54.331Z,32.10
2018-05-07T12:31:01.296Z,30.20
2018-05-07T12:36:06.491Z,28.00
2018-05-07T12:41:12.941Z,29.70
2018-05-07T12:46:19.729Z,30.50
2018-05-07T12:51:27.917Z,32.00
2018-05-07T12:56:35.598Z,30.40
2018-05-07T13:01:41.460Z,32.80
2018-05-07T13:06:51.814Z,33.50
2018-05-07T13:11:59.307Z,33.60
2018-05-07T13:17:04.239Z,30.80
2018-05-07T13:22:10.936Z,30.40
2018-05-07T13:27:22.809Z,32.00
2018-05-07T13:32:33.527Z,31.60
2018-05-07T13:37:41.551Z,30.50
2018-05-07T13:42:47.746Z,31.30
2018-05-07T13:47:54.736Z,28.60
2018-05-07T13:53:01.377Z,31.80
2018-05-07T13:58:07.698Z,28.50
2018-05-07T14:03:13.084Z,29.70
2018-05-07T14:08:22.584Z,28.30
2018-05-07T14:13:27.160Z,31.20
2018-05-07T14:18:32.343Z,30.50
2018-05-07T14:23:38.788Z,27.90
2018-05-07T14:28:45.187Z,27.90
2018-05-07T14:33:55.551Z,28.20
2018-05-07T14:39:06.754Z,27.90
2018-05-07T14:44:13.126Z,28.00
2018-05-07T14:49:19.743Z,28.20
2018-05-07T14:54:27.464Z,28.20
2018-05-07T14:59:29.118Z,29.50
2018-05-07T15:04:35.867Z,28.10
2018-05-07T15:09:42.827Z,27.70
2018-05-07T15:14:49.182Z,27.60
2018-05-07T15:19:56.347Z,27.50
2018-05-07T15:30:21.779Z,26.70
2018-05-07T15:35:32.848Z,26.70
2018-05-07T15:40:42.429Z,26.60
2018-05-07T15:45:52.370Z,24.90
2018-05-07T15:50:58.497Z,26.90
2018-05-07T15:56:05.955Z,27.70
2018-05-07T16:01:11.586Z,25.30
2018-05-07T16:06:19.159Z,25.10
2018-05-07T16:11:26.524Z,26.90
2018-05-07T16:16:32.727Z,26.90
2018-05-07T16:21:39.604Z,25.00
2018-05-07T16:26:47.248Z,25.80
2018-05-07T16:31:55.346Z,25.80
2018-05-07T16:37:02.221Z,25.20
2018-05-07T16:42:08.898Z,25.80
2018-05-07T16:47:10.676Z,25.90
2018-05-07T16:52:19.418Z,25.30
2018-05-07T16:57:28.119Z,26.20
2018-05-07T17:02:35.977Z,26.60
2018-05-07T17:07:43.316Z,26.70
2018-05-07T17:12:49.821Z,25.80
2018-05-07T17:17:56.893Z,25.80
2018-05-07T17:23:02.492Z,26.40
2018-05-07T17:28:08.277Z,26.10
2018-05-07T17:33:14.612Z,26.90
2018-05-07T17:38:20.807Z,26.30
2018-05-07T17:43:26.373Z,27.20
2018-05-07T17:48:48.211Z,26.50
2018-05-07T17:53:55.653Z,27.10
2018-05-07T17:59:02.110Z,27.50
2018-05-07T18:04:12.123Z,28.10
2018-05-07T18:09:13.928Z,28.10
2018-05-07T18:14:20.124Z,28.10
2018-05-07T18:19:26.088Z,28.70
2018-05-07T18:24:33.197Z,29.10
2018-05-07T18:29:45.424Z,29.00
2018-05-07T18:34:52.873Z,29.60
2018-05-07T18:39:59.833Z,29.60
2018-05-07T18:45:10.808Z,31.50
2018-05-07T18:50:19.997Z,32.30
2018-05-07T18:55:28.895Z,33.70
2018-05-07T19:00:39.199Z,36.60
2018-05-07T19:05:47.773Z,37.00
2018-05-07T19:10:54.620Z,38.00
2018-05-07T19:16:04.696Z,38.30
2018-05-07T19:21:11.541Z,38.20
2018-05-07T19:26:16.596Z,44.20
2018-05-07T19:31:23.728Z,44.90
2018-05-07T19:36:31.655Z,45.80
2018-05-07T19:41:40.263Z,46.50
2018-05-07T19:46:44.759Z,45.70
2018-05-07T19:51:50.722Z,45.80
2018-05-07T19:57:00.878Z,46.40
2018-05-07T20:02:08.236Z,46.70
2018-05-07T20:07:14.623Z,47.50
2018-05-07T20:12:22.681Z,47.80
2018-05-07T20:17:28.152Z,47.40
2018-05-07T20:22:36.554Z,48.70
2018-05-07T20:27:45.923Z,49.20
2018-05-07T20:32:47.951Z,49.80
2018-05-07T20:37:53.381Z,51.20
2018-05-07T20:43:00.663Z,51.20
2018-05-07T20:48:07.479Z,51.30
2018-05-07T20:53:13.240Z,51.40
2018-05-07T20:58:20.444Z,51.80
2018-05-07T21:03:25.776Z,52.20
2018-05-07T21:08:32.692Z,53.00
2018-05-07T21:13:43.484Z,52.90
2018-05-07T21:18:48.640Z,53.40
2018-05-07T21:23:58.255Z,53.60
2018-05-07T21:29:01.637Z,54.10
2018-05-07T21:34:06.329Z,54.60
2018-05-07T21:39:10.267Z,54.40
2018-05-07T21:44:14.143Z,54.30
2018-05-07T21:49:18.303Z,55.40
2018-05-07T21:54:22.513Z,55.60
2018-05-07T21:59:26.536Z,56.20
2018-05-07T22:04:30.723Z,56.80
2018-05-07T22:09:34.610Z,56.60
2018-05-07T22:14:39.303Z,55.50
2018-05-07T22:19:42.388Z,55.40
2018-05-07T22:24:46.328Z,55.70
2018-05-07T22:29:50.327Z,55.70
2018-05-07T22:34:54.223Z,56.00
2018-05-07T22:39:58.065Z,56.50
2018-05-07T22:45:02.527Z,56.60
2018-05-07T22:50:07.380Z,57.10
2018-05-07T22:55:20.444Z,58.40
2018-05-07T23:00:23.951Z,57.60
2018-05-07T23:05:27.136Z,58.00
2018-05-07T23:10:30.903Z,58.00
2018-05-07T23:15:36.442Z,57.70
2018-05-07T23:20:43.067Z,57.70
2018-05-07T23:25:44.631Z,57.30
2018-05-07T23:30:46.205Z,57.40
2018-05-07T23:35:47.789Z,57.60
2018-05-07T23:40:49.336Z,57.00
2018-05-07T23:45:53.815Z,56.20
2018-05-07T23:50:58.311Z,55.80
2018-05-07T23:56:03.390Z,55.10
